Terminal Aerodrome Forecast
Issued by NWS Cleveland, OH

Home | Current Version | Previous Version | Graphics & Text | Print | Product List | Glossary On
Versions: 1 2 3 4 5 6 7 8 9 10 11 12 13 14 15 16 17 18 19 20 21
000
FTUS41 KCLE 150200 AAA
TAFERI
TAF AMD
KERI 150211Z 1502/1524 28006KT P6SM SCT007 OVC025
      TEMPO 1502/1505 3SM -RA BR BKN007 OVC025
     FM150500 35006KT 3SM -RA SCT007 OVC015
      TEMPO 1505/1508 2SM RA BR OVC007
     FM150800 35008KT 2SM RA BR OVC007
     FM151100 35012G20KT 1SM -SN BR OVC007
     FM151600 33015G25KT 3SM -SN BR BKN015 OVC025
     FM151700 31015G25KT P6SM BKN025 OVC035=

USA.gov is the U.S. government's official web portal to all federal, state and local government web resources and services.